createdAt,value
2017-10-14T00:00:16.863Z,14.00
2017-10-14T00:02:45.178Z,13.90
2017-10-14T00:05:12.666Z,13.90
2017-10-14T00:07:40.146Z,13.80
2017-10-14T00:10:07.647Z,13.80
2017-10-14T00:12:35.158Z,13.80
2017-10-14T00:15:02.698Z,13.80
2017-10-14T00:17:31.294Z,13.70
2017-10-14T00:19:58.824Z,13.70
2017-10-14T00:22:27.192Z,13.70
2017-10-14T00:24:55.445Z,13.70
2017-10-14T00:27:22.922Z,13.70
2017-10-14T00:29:50.412Z,13.80
2017-10-14T00:32:18.816Z,13.80
2017-10-14T00:34:46.315Z,13.80
2017-10-14T00:37:13.792Z,13.90
2017-10-14T00:39:42.795Z,14.00
2017-10-14T00:42:11.570Z,14.00
2017-10-14T00:44:39.862Z,14.00
2017-10-14T00:47:08.102Z,14.00
2017-10-14T00:49:35.621Z,13.90
2017-10-14T00:52:03.750Z,14.00
2017-10-14T00:54:32.857Z,13.90
2017-10-14T00:57:01.191Z,14.00
2017-10-14T00:59:28.678Z,14.00
2017-10-14T01:01:56.965Z,14.00
2017-10-14T01:04:25.577Z,14.00
2017-10-14T01:06:53.144Z,14.00
2017-10-14T01:09:20.778Z,13.90
2017-10-14T01:11:49.076Z,14.00
2017-10-14T01:14:17.402Z,13.90
2017-10-14T01:16:46.041Z,13.90
2017-10-14T01:19:14.737Z,13.90
2017-10-14T01:21:42.232Z,13.90
2017-10-14T01:24:09.723Z,13.90
2017-10-14T01:26:38.006Z,13.80
2017-10-14T01:29:05.553Z,13.80
2017-10-14T01:31:33.807Z,13.90
2017-10-14T01:34:01.337Z,13.90
2017-10-14T01:36:28.826Z,13.90
2017-10-14T01:38:56.317Z,13.90
2017-10-14T01:41:23.827Z,14.00
2017-10-14T01:43:51.745Z,14.00
2017-10-14T01:46:19.229Z,14.00
2017-10-14T01:48:47.276Z,14.00
2017-10-14T01:51:14.759Z,14.00
2017-10-14T01:53:42.587Z,14.00
2017-10-14T01:56:10.863Z,14.00
2017-10-14T01:58:39.125Z,14.00
2017-10-14T02:01:07.391Z,13.90
2017-10-14T02:03:35.642Z,13.90
2017-10-14T02:06:03.216Z,13.90
2017-10-14T02:08:30.759Z,14.00
2017-10-14T02:10:58.267Z,14.00
2017-10-14T02:13:25.727Z,14.00
2017-10-14T02:15:53.176Z,14.00
2017-10-14T02:18:20.813Z,14.00
2017-10-14T02:20:48.309Z,14.00
2017-10-14T02:23:15.797Z,13.90
2017-10-14T02:25:43.285Z,13.80
2017-10-14T02:28:10.924Z,13.80
2017-10-14T02:30:38.438Z,13.80
2017-10-14T02:33:05.916Z,13.80
2017-10-14T02:35:33.405Z,13.70
2017-10-14T02:38:00.902Z,13.70
2017-10-14T02:40:28.383Z,13.60
2017-10-14T02:42:55.901Z,13.50
2017-10-14T02:45:24.173Z,13.60
2017-10-14T02:47:53.307Z,13.60
2017-10-14T02:50:20.771Z,13.60
2017-10-14T02:52:49.208Z,13.60
2017-10-14T02:55:17.471Z,13.40
2017-10-14T02:57:44.996Z,13.40
2017-10-14T03:00:12.564Z,13.50
2017-10-14T03:02:40.680Z,13.40
2017-10-14T03:05:09.066Z,13.40
2017-10-14T03:07:37.121Z,13.40
2017-10-14T03:10:05.430Z,13.20
2017-10-14T03:12:32.993Z,13.20
2017-10-14T03:15:00.793Z,13.20
2017-10-14T03:17:28.280Z,13.20
2017-10-14T03:19:56.530Z,13.20
2017-10-14T03:22:24.014Z,13.20
2017-10-14T03:24:52.265Z,13.10
2017-10-14T03:27:19.760Z,13.10
2017-10-14T03:29:48.565Z,13.00
2017-10-14T03:32:16.031Z,12.90
2017-10-14T03:34:43.561Z,12.90
2017-10-14T03:37:11.848Z,12.80
2017-10-14T03:39:39.355Z,12.80
2017-10-14T03:42:06.863Z,12.80
2017-10-14T03:44:34.374Z,12.80
2017-10-14T03:47:01.832Z,12.80
2017-10-14T03:49:29.468Z,12.80
2017-10-14T03:51:56.963Z,12.70
2017-10-14T03:54:24.484Z,12.60
2017-10-14T03:56:52.032Z,12.60
2017-10-14T03:59:19.595Z,12.70
2017-10-14T04:01:47.154Z,12.70
2017-10-14T04:04:14.720Z,12.80
2017-10-14T04:06:43.033Z,12.70
